Time;durP1;ratioP1;P1;durP2;ratioP2;P2;SDS_P1;SDS_P2;PMS_P1;PMS_P2;Temp;Humidity;BMP_temperature;BMP_pressure;BME280_temperature;BME280_humidity;BME280_pressure;Samples;Min_cycle;Max_cycle;Signal;HPM_P1;HPM_P2
2023/05/12 00:01:37;;;;;;;4.20;3.43;;;;;;;;;;4940623;29;20428;-94
2023/05/12 00:04:03;;;;;;;4.20;3.80;;;;;;;;;;4935013;29;20443;-94
2023/05/12 00:06:30;;;;;;;4.90;4.23;;;;;;;;;;4930724;29;20504;-94
2023/05/12 00:08:56;;;;;;;4.17;3.30;;;;;;;;;;4936988;29;20538;-95
2023/05/12 00:11:22;;;;;;;3.93;3.23;;;;;;;;;;4945817;29;20463;-95
2023/05/12 00:13:48;;;;;;;3.57;3.23;;;;;;;;;;4942156;29;20803;-94
2023/05/12 00:16:16;;;;;;;5.40;3.97;;;;;;;;;;4922652;29;20471;-94
2023/05/12 00:18:42;;;;;;;4.43;4.03;;;;;;;;;;4940376;29;20486;-94
2023/05/12 00:21:08;;;;;;;6.47;4.30;;;;;;;;;;4933023;29;20948;-94
2023/05/12 00:23:34;;;;;;;4.77;3.77;;;;;;;;;;4942177;29;20844;-94
2023/05/12 00:26:00;;;;;;;5.03;3.83;;;;;;;;;;4933481;29;20432;-94
2023/05/12 00:28:26;;;;;;;3.80;3.50;;;;;;;;;;4936966;29;20439;-94
2023/05/12 00:30:52;;;;;;;4.40;3.70;;;;;;;;;;4925186;29;20448;-94
2023/05/12 00:33:18;;;;;;;4.30;3.70;;;;;;;;;;4934681;29;20448;-94
2023/05/12 00:35:44;;;;;;;4.70;4.20;;;;;;;;;;4933128;29;20491;-94
2023/05/12 00:38:11;;;;;;;4.33;3.93;;;;;;;;;;4936246;29;20531;-94
2023/05/12 00:40:37;;;;;;;4.93;3.80;;;;;;;;;;4902942;29;20424;-94
2023/05/12 00:43:03;;;;;;;4.00;3.53;;;;;;;;;;4935831;29;21156;-94
2023/05/12 00:45:30;;;;;;;5.37;3.90;;;;;;;;;;4937995;29;20444;-94
2023/05/12 00:47:56;;;;;;;4.10;3.70;;;;;;;;;;4932720;29;20463;-94
2023/05/12 00:50:22;;;;;;;3.80;3.37;;;;;;;;;;4931453;29;20451;-94
2023/05/12 00:52:48;;;;;;;5.80;3.57;;;;;;;;;;4924937;29;20479;-94
2023/05/12 00:55:14;;;;;;;5.23;3.33;;;;;;;;;;4933772;28;20500;-93
2023/05/12 00:57:42;;;;;;;3.40;3.10;;;;;;;;;;4947276;28;21467;-93
2023/05/12 01:00:09;;;;;;;3.30;3.00;;;;;;;;;;4927794;29;20922;-94
2023/05/12 01:02:35;;;;;;;3.70;3.37;;;;;;;;;;4935639;29;20427;-95
2023/05/12 01:05:01;;;;;;;4.20;3.17;;;;;;;;;;4947341;28;20452;-95
2023/05/12 01:07:27;;;;;;;5.20;3.40;;;;;;;;;;4940133;29;20447;-95
2023/05/12 01:09:57;;;;;;;3.90;3.27;;;;;;;;;;4938084;29;20435;-92
2023/05/12 01:12:23;;;;;;;3.90;3.53;;;;;;;;;;4932936;29;20446;-94
2023/05/12 01:14:49;;;;;;;4.33;2.90;;;;;;;;;;4910855;29;20503;-94
2023/05/12 01:17:15;;;;;;;5.73;4.20;;;;;;;;;;4942024;28;20484;-94
2023/05/12 01:19:41;;;;;;;5.63;4.50;;;;;;;;;;4939886;29;20435;-94
2023/05/12 01:22:08;;;;;;;5.23;4.30;;;;;;;;;;4941855;29;20435;-94
2023/05/12 01:24:34;;;;;;;7.20;4.83;;;;;;;;;;4945747;29;20438;-94
2023/05/12 01:27:00;;;;;;;6.93;5.20;;;;;;;;;;4935442;29;20431;-94
2023/05/12 01:29:26;;;;;;;7.73;5.10;;;;;;;;;;4939627;29;20506;-94
2023/05/12 01:31:52;;;;;;;5.87;5.30;;;;;;;;;;4939557;29;20447;-94
2023/05/12 01:34:18;;;;;;;5.60;4.80;;;;;;;;;;4939061;29;20471;-94
2023/05/12 01:36:44;;;;;;;4.87;4.37;;;;;;;;;;4937128;29;20472;-94
2023/05/12 01:39:11;;;;;;;6.27;4.97;;;;;;;;;;4927957;29;20931;-94
2023/05/12 01:41:37;;;;;;;5.37;4.60;;;;;;;;;;4936591;29;20911;-94
2023/05/12 01:44:03;;;;;;;4.80;4.23;;;;;;;;;;4935506;29;20443;-95
2023/05/12 01:46:29;;;;;;;5.13;4.50;;;;;;;;;;4906880;29;20438;-94
2023/05/12 01:48:55;;;;;;;9.80;4.63;;;;;;;;;;4925782;29;20460;-95
2023/05/12 01:51:21;;;;;;;4.97;4.30;;;;;;;;;;4943337;29;20435;-95
2023/05/12 01:53:47;;;;;;;5.40;4.60;;;;;;;;;;4943203;29;21061;-94
2023/05/12 01:56:13;;;;;;;5.20;4.50;;;;;;;;;;4908981;29;20495;-94
2023/05/12 01:58:39;;;;;;;5.90;4.30;;;;;;;;;;4937550;29;20531;-94
2023/05/12 02:01:05;;;;;;;5.13;4.63;;;;;;;;;;4937233;29;20440;-91
2023/05/12 02:03:31;;;;;;;6.73;5.30;;;;;;;;;;4938427;29;20440;-94
2023/05/12 02:05:57;;;;;;;12.53;5.93;;;;;;;;;;4937475;29;20512;-93
2023/05/12 02:08:23;;;;;;;6.80;4.73;;;;;;;;;;4938244;29;20564;-92
2023/05/12 02:10:50;;;;;;;7.33;5.30;;;;;;;;;;4940783;29;20439;-93
2023/05/12 02:13:16;;;;;;;7.47;4.80;;;;;;;;;;4942666;29;20435;-93
2023/05/12 02:15:41;;;;;;;8.00;5.60;;;;;;;;;;4938973;29;20558;-93
2023/05/12 02:18:08;;;;;;;7.27;5.27;;;;;;;;;;4941946;29;20440;-92
2023/05/12 02:20:35;;;;;;;7.50;6.77;;;;;;;;;;4925527;29;20448;-92
2023/05/12 02:23:01;;;;;;;7.47;6.20;;;;;;;;;;4942422;29;20440;-92
2023/05/12 02:25:27;;;;;;;6.57;5.20;;;;;;;;;;4939927;29;20431;-92
2023/05/12 02:27:53;;;;;;;7.03;5.50;;;;;;;;;;4951871;29;20437;-92
2023/05/12 02:30:19;;;;;;;7.30;6.00;;;;;;;;;;4913160;29;20523;-92
2023/05/12 02:32:45;;;;;;;7.60;5.87;;;;;;;;;;4925495;29;20429;-93
2023/05/12 02:35:11;;;;;;;7.40;5.73;;;;;;;;;;4953010;29;20420;-92
2023/05/12 02:37:37;;;;;;;7.43;6.53;;;;;;;;;;4941568;29;20474;-93
2023/05/12 02:40:04;;;;;;;6.83;5.93;;;;;;;;;;4940808;29;20436;-93
2023/05/12 02:42:34;;;;;;;9.97;7.03;;;;;;;;;;4943284;29;20493;-92
2023/05/12 02:45:00;;;;;;;10.60;7.97;;;;;;;;;;4946371;29;20443;-92
2023/05/12 02:47:30;;;;;;;8.83;7.53;;;;;;;;;;4941194;29;20538;-93
2023/05/12 02:49:56;;;;;;;8.07;6.17;;;;;;;;;;4925968;29;20536;-92
2023/05/12 02:52:22;;;;;;;8.90;7.47;;;;;;;;;;4939285;29;20501;-92
2023/05/12 02:54:48;;;;;;;8.60;7.70;;;;;;;;;;4945079;29;20423;-91
2023/05/12 02:57:14;;;;;;;6.63;6.03;;;;;;;;;;4940893;29;20988;-91
2023/05/12 02:59:40;;;;;;;12.97;10.33;;;;;;;;;;4946093;29;20955;-91
2023/05/12 03:02:06;;;;;;;12.40;8.73;;;;;;;;;;4936046;29;20427;-92
2023/05/12 03:04:32;;;;;;;9.63;8.27;;;;;;;;;;4940529;29;20431;-91
2023/05/12 03:06:58;;;;;;;12.80;10.30;;;;;;;;;;4940651;29;20861;-91
2023/05/12 03:09:24;;;;;;;12.00;8.60;;;;;;;;;;4928939;29;20487;-91
2023/05/12 03:11:50;;;;;;;11.20;8.50;;;;;;;;;;4940901;29;20436;-91
2023/05/12 03:14:16;;;;;;;12.27;9.03;;;;;;;;;;4948670;29;20439;-92
2023/05/12 03:16:42;;;;;;;11.70;9.20;;;;;;;;;;4939353;29;20498;-92
2023/05/12 03:19:08;;;;;;;11.03;8.80;;;;;;;;;;4941787;29;20456;-92
2023/05/12 03:21:34;;;;;;;12.50;9.90;;;;;;;;;;4939152;29;20450;-92
2023/05/12 03:24:00;;;;;;;11.90;9.30;;;;;;;;;;4940957;29;20439;-91
2023/05/12 03:26:26;;;;;;;11.00;9.50;;;;;;;;;;4940525;29;20435;-92
2023/05/12 03:28:52;;;;;;;12.73;10.17;;;;;;;;;;4945456;29;20462;-92
2023/05/12 03:31:18;;;;;;;11.13;8.50;;;;;;;;;;4923317;29;20536;-92
2023/05/12 03:33:44;;;;;;;12.00;9.53;;;;;;;;;;4939433;29;20506;-91
2023/05/12 03:36:10;;;;;;;12.20;8.10;;;;;;;;;;4937888;29;21047;-90
2023/05/12 03:38:36;;;;;;;13.97;10.23;;;;;;;;;;4909164;29;20436;-90
2023/05/12 03:41:03;;;;;;;12.87;10.40;;;;;;;;;;4923892;29;20431;-90
2023/05/12 03:43:29;;;;;;;14.00;9.87;;;;;;;;;;4943438;29;20892;-91
2023/05/12 03:45:55;;;;;;;12.47;10.10;;;;;;;;;;4924468;29;20439;-90
2023/05/12 03:48:21;;;;;;;13.10;9.80;;;;;;;;;;4924639;29;20435;-90
2023/05/12 03:50:47;;;;;;;9.80;7.57;;;;;;;;;;4935514;29;20456;-90
2023/05/12 03:53:13;;;;;;;11.90;8.60;;;;;;;;;;4930523;29;20444;-91
2023/05/12 03:55:39;;;;;;;12.83;9.20;;;;;;;;;;4936956;29;20460;-90
2023/05/12 03:58:04;;;;;;;11.20;8.90;;;;;;;;;;4922506;29;20451;-91
2023/05/12 04:00:32;;;;;;;12.00;10.10;;;;;;;;;;4936226;29;20442;-90
2023/05/12 04:02:58;;;;;;;12.17;9.70;;;;;;;;;;4929838;29;20436;-91
2023/05/12 04:05:24;;;;;;;12.33;9.50;;;;;;;;;;4939156;29;20556;-90
2023/05/12 04:07:50;;;;;;;13.93;10.00;;;;;;;;;;4938520;29;20455;-90
2023/05/12 04:10:16;;;;;;;12.00;9.37;;;;;;;;;;4921954;29;20492;-91
2023/05/12 04:12:42;;;;;;;13.53;9.67;;;;;;;;;;4943736;29;20452;-90
2023/05/12 04:15:08;;;;;;;12.30;9.80;;;;;;;;;;4946369;29;20532;-91
2023/05/12 04:17:34;;;;;;;11.73;9.27;;;;;;;;;;4935185;29;20479;-91
2023/05/12 04:20:00;;;;;;;12.13;9.00;;;;;;;;;;4929386;29;20432;-90
2023/05/12 04:22:26;;;;;;;11.20;9.67;;;;;;;;;;4933570;29;21027;-90
2023/05/12 04:24:52;;;;;;;13.30;10.00;;;;;;;;;;4929067;29;20464;-91
2023/05/12 04:27:18;;;;;;;13.30;11.90;;;;;;;;;;4922763;29;21062;-90
2023/05/12 04:29:44;;;;;;;13.80;10.00;;;;;;;;;;4935538;29;20498;-90
2023/05/12 04:32:10;;;;;;;12.83;9.60;;;;;;;;;;4917665;29;20479;-90
2023/05/12 04:34:36;;;;;;;15.30;10.43;;;;;;;;;;4941752;29;20452;-92
2023/05/12 04:37:02;;;;;;;13.67;9.97;;;;;;;;;;4937212;29;20455;-91
2023/05/12 04:39:28;;;;;;;13.30;10.40;;;;;;;;;;4935149;29;20428;-90
2023/05/12 04:41:54;;;;;;;11.80;9.77;;;;;;;;;;4929542;29;20526;-90
2023/05/12 04:44:21;;;;;;;13.07;9.37;;;;;;;;;;4905545;29;20416;-90
2023/05/12 04:46:48;;;;;;;11.40;9.17;;;;;;;;;;4919081;29;20451;-90
2023/05/12 04:49:14;;;;;;;14.30;10.50;;;;;;;;;;4936132;29;20432;-91
2023/05/12 04:51:41;;;;;;;12.00;9.80;;;;;;;;;;4937327;29;20455;-92
2023/05/12 04:54:10;;;;;;;14.77;8.93;;;;;;;;;;4946474;29;20454;-90
2023/05/12 04:56:36;;;;;;;13.63;10.60;;;;;;;;;;4934779;29;20471;-92
2023/05/12 04:59:02;;;;;;;11.77;9.30;;;;;;;;;;4921270;29;20432;-89
2023/05/12 05:01:28;;;;;;;13.13;9.27;;;;;;;;;;4902739;29;20451;-88
2023/05/12 05:03:54;;;;;;;13.63;10.93;;;;;;;;;;4933170;29;20460;-89
2023/05/12 05:06:20;;;;;;;11.80;9.73;;;;;;;;;;4919011;29;20448;-88
2023/05/12 05:08:46;;;;;;;10.77;8.80;;;;;;;;;;4950850;29;20423;-88
2023/05/12 05:11:12;;;;;;;11.00;9.00;;;;;;;;;;4898762;29;20472;-88
2023/05/12 05:13:38;;;;;;;12.37;10.30;;;;;;;;;;4936830;29;20435;-88
2023/05/12 05:16:05;;;;;;;11.80;10.30;;;;;;;;;;4933087;29;20466;-91
2023/05/12 05:18:31;;;;;;;10.27;8.43;;;;;;;;;;4936214;28;20467;-88
2023/05/12 05:20:57;;;;;;;11.50;10.00;;;;;;;;;;4936870;29;20476;-88
2023/05/12 05:23:23;;;;;;;12.33;9.70;;;;;;;;;;4929210;29;20602;-88
2023/05/12 05:25:50;;;;;;;14.57;8.70;;;;;;;;;;4930718;29;21015;-88
2023/05/12 05:28:16;;;;;;;14.00;10.40;;;;;;;;;;4934373;29;20520;-88
2023/05/12 05:30:42;;;;;;;12.03;9.07;;;;;;;;;;4931133;29;20459;-88
2023/05/12 05:33:08;;;;;;;13.97;9.70;;;;;;;;;;4929470;29;20451;-88
2023/05/12 05:35:34;;;;;;;12.90;9.57;;;;;;;;;;4932099;29;20483;-88
2023/05/12 05:38:00;;;;;;;12.73;9.70;;;;;;;;;;4931724;29;20475;-89
2023/05/12 05:40:26;;;;;;;12.93;10.00;;;;;;;;;;4931357;29;21517;-87
2023/05/12 05:42:52;;;;;;;13.00;8.53;;;;;;;;;;4919061;29;20468;-88
2023/05/12 05:45:18;;;;;;;11.90;8.57;;;;;;;;;;4922450;29;20539;-87
2023/05/12 05:47:45;;;;;;;11.57;8.77;;;;;;;;;;4931272;29;20440;-87
2023/05/12 05:50:11;;;;;;;11.30;8.50;;;;;;;;;;4937844;29;21204;-88
2023/05/12 05:52:37;;;;;;;9.87;7.93;;;;;;;;;;4921073;29;20775;-88
2023/05/12 05:55:03;;;;;;;12.90;10.20;;;;;;;;;;4931854;29;20428;-87
2023/05/12 05:57:29;;;;;;;10.30;8.00;;;;;;;;;;4934972;29;20467;-89
2023/05/12 05:59:55;;;;;;;12.17;8.80;;;;;;;;;;4930189;29;20439;-89
2023/05/12 06:02:22;;;;;;;10.13;7.73;;;;;;;;;;4934164;29;20458;-89
2023/05/12 06:04:48;;;;;;;11.13;8.50;;;;;;;;;;4935632;29;21075;-88
2023/05/12 06:07:15;;;;;;;13.30;9.30;;;;;;;;;;4943993;29;20444;-87
2023/05/12 06:09:41;;;;;;;9.67;8.33;;;;;;;;;;4918522;29;20448;-87
2023/05/12 06:12:07;;;;;;;9.90;7.83;;;;;;;;;;4930211;29;20416;-87
2023/05/12 06:14:33;;;;;;;9.63;7.20;;;;;;;;;;4898785;29;20451;-87
2023/05/12 06:16:59;;;;;;;12.30;7.73;;;;;;;;;;4938944;29;20867;-87
2023/05/12 06:19:25;;;;;;;9.13;7.37;;;;;;;;;;4935995;29;20446;-89
2023/05/12 06:21:52;;;;;;;12.30;8.30;;;;;;;;;;4934706;29;20514;-89
2023/05/12 06:24:18;;;;;;;11.60;7.93;;;;;;;;;;4930543;29;20442;-89
2023/05/12 06:26:44;;;;;;;7.80;6.57;;;;;;;;;;4905141;29;20423;-88
2023/05/12 06:29:10;;;;;;;9.63;7.30;;;;;;;;;;4937085;29;20428;-88
2023/05/12 06:31:36;;;;;;;7.47;6.20;;;;;;;;;;4926463;29;20459;-88
2023/05/12 06:34:03;;;;;;;11.40;7.20;;;;;;;;;;4927768;29;20868;-89
2023/05/12 06:36:29;;;;;;;7.57;6.13;;;;;;;;;;4940443;29;20621;-88
2023/05/12 06:38:55;;;;;;;9.57;7.50;;;;;;;;;;4904258;29;20451;-88
2023/05/12 06:41:23;;;;;;;6.77;5.70;;;;;;;;;;4932854;29;20436;-88
2023/05/12 06:43:49;;;;;;;9.77;6.77;;;;;;;;;;4938788;29;20451;-88
2023/05/12 06:46:16;;;;;;;7.83;6.53;;;;;;;;;;4938202;29;20441;-89
2023/05/12 06:48:45;;;;;;;7.20;6.00;;;;;;;;;;4939800;29;20478;-90
2023/05/12 06:51:11;;;;;;;7.90;6.70;;;;;;;;;;4943977;29;20471;-89
2023/05/12 06:53:37;;;;;;;7.83;6.40;;;;;;;;;;4901656;29;20534;-89
2023/05/12 06:56:04;;;;;;;11.30;8.27;;;;;;;;;;4936092;29;20448;-89
2023/05/12 06:58:30;;;;;;;7.50;6.20;;;;;;;;;;4948229;29;20490;-89
2023/05/12 07:00:56;;;;;;;7.47;6.30;;;;;;;;;;4927484;29;20798;-89
2023/05/12 07:03:22;;;;;;;10.10;5.90;;;;;;;;;;4944988;29;20438;-88
2023/05/12 07:05:50;;;;;;;7.53;6.67;;;;;;;;;;4910864;29;20461;-88
2023/05/12 07:08:16;;;;;;;6.67;5.97;;;;;;;;;;4947658;29;20455;-90
2023/05/12 07:10:42;;;;;;;6.97;5.63;;;;;;;;;;4935008;29;20443;-89
2023/05/12 07:13:08;;;;;;;5.83;5.03;;;;;;;;;;4926419;29;20490;-89
2023/05/12 07:15:34;;;;;;;5.43;4.33;;;;;;;;;;4940824;29;20450;-90
2023/05/12 07:18:00;;;;;;;5.83;4.77;;;;;;;;;;4941543;29;20490;-91
2023/05/12 07:20:26;;;;;;;7.20;5.47;;;;;;;;;;4949388;29;20547;-90
2023/05/12 07:22:55;;;;;;;5.30;4.30;;;;;;;;;;4921644;29;20478;-89
2023/05/12 07:25:21;;;;;;;7.00;4.70;;;;;;;;;;4936432;29;20452;-89
2023/05/12 07:27:48;;;;;;;5.60;4.90;;;;;;;;;;4941730;29;20809;-89
2023/05/12 07:30:15;;;;;;;5.97;4.70;;;;;;;;;;4951477;29;20457;-90
2023/05/12 07:32:41;;;;;;;4.80;4.30;;;;;;;;;;4909564;29;20444;-88
2023/05/12 07:35:08;;;;;;;5.67;4.37;;;;;;;;;;4944174;29;20451;-89
2023/05/12 07:37:34;;;;;;;7.53;5.23;;;;;;;;;;4934765;29;20506;-88
2023/05/12 07:40:00;;;;;;;5.80;5.00;;;;;;;;;;4943281;29;20982;-87
2023/05/12 07:42:26;;;;;;;6.70;5.50;;;;;;;;;;4932887;29;20936;-88
2023/05/12 07:44:53;;;;;;;8.13;6.20;;;;;;;;;;4953625;28;20487;-89
2023/05/12 07:47:19;;;;;;;6.33;5.17;;;;;;;;;;4939791;29;20483;-88
2023/05/12 07:49:45;;;;;;;5.30;4.20;;;;;;;;;;4923369;29;20444;-88
2023/05/12 07:52:11;;;;;;;5.00;4.33;;;;;;;;;;4942054;29;20474;-88
2023/05/12 07:54:38;;;;;;;7.53;5.20;;;;;;;;;;4937093;29;20458;-88
2023/05/12 07:57:04;;;;;;;6.43;5.20;;;;;;;;;;4943225;29;20467;-88
2023/05/12 07:59:30;;;;;;;7.10;4.50;;;;;;;;;;4937380;29;20431;-89
2023/05/12 08:01:56;;;;;;;4.63;4.13;;;;;;;;;;4947598;28;20453;-88
2023/05/12 08:04:22;;;;;;;3.67;3.23;;;;;;;;;;4953544;28;20439;-90
2023/05/12 08:06:48;;;;;;;4.57;3.50;;;;;;;;;;4940516;29;20453;-90
2023/05/12 08:09:14;;;;;;;4.43;4.03;;;;;;;;;;4942854;28;20946;-89
2023/05/12 08:11:40;;;;;;;5.60;4.23;;;;;;;;;;4917019;29;20440;-88
2023/05/12 08:14:06;;;;;;;6.03;4.80;;;;;;;;;;4933341;29;20436;-89
2023/05/12 08:16:32;;;;;;;4.80;4.30;;;;;;;;;;4952729;29;20466;-88
2023/05/12 08:18:58;;;;;;;4.90;4.00;;;;;;;;;;4901235;29;20424;-88
2023/05/12 08:21:24;;;;;;;6.53;5.13;;;;;;;;;;4938375;29;20518;-89
2023/05/12 08:23:52;;;;;;;5.33;4.70;;;;;;;;;;4918091;29;20449;-88
2023/05/12 08:26:17;;;;;;;8.13;5.00;;;;;;;;;;4939512;29;21137;-88
2023/05/12 08:28:43;;;;;;;5.10;4.60;;;;;;;;;;4945178;29;20431;-89
2023/05/12 08:31:15;;;;;;;6.87;5.10;;;;;;;;;;4938217;29;20991;-90
2023/05/12 08:33:41;;;;;;;4.33;3.80;;;;;;;;;;4937896;29;20448;-88
2023/05/12 08:36:07;;;;;;;5.13;4.60;;;;;;;;;;4944740;29;20459;-88
2023/05/12 08:38:33;;;;;;;5.67;4.33;;;;;;;;;;4946678;29;20471;-88
2023/05/12 08:41:05;;;;;;;4.37;3.70;;;;;;;;;;4942528;29;20444;-87
2023/05/12 08:43:43;;;;;;;3.83;3.20;;;;;;;;;;4942638;29;20432;-88
2023/05/12 08:46:09;;;;;;;4.40;4.00;;;;;;;;;;4948733;29;20451;-88
2023/05/12 08:48:35;;;;;;;4.20;3.80;;;;;;;;;;4945524;29;20436;-90
2023/05/12 08:51:01;;;;;;;4.97;3.17;;;;;;;;;;4941638;29;20528;-89
2023/05/12 08:53:27;;;;;;;5.10;3.40;;;;;;;;;;4936617;29;20458;-89
2023/05/12 08:55:54;;;;;;;5.33;3.67;;;;;;;;;;4914454;29;20463;-89
2023/05/12 08:58:20;;;;;;;3.47;3.17;;;;;;;;;;4941870;29;20440;-90
2023/05/12 09:00:46;;;;;;;3.47;2.63;;;;;;;;;;4936892;29;20435;-90
2023/05/12 09:03:13;;;;;;;6.20;3.80;;;;;;;;;;4941571;29;20487;-89
2023/05/12 09:05:39;;;;;;;3.50;2.90;;;;;;;;;;4936175;29;21010;-89
2023/05/12 09:08:05;;;;;;;4.47;4.07;;;;;;;;;;4933527;29;20455;-89
2023/05/12 09:10:31;;;;;;;5.13;3.90;;;;;;;;;;4937425;29;20530;-88
2023/05/12 09:13:17;;;;;;;3.67;3.33;;;;;;;;;;4935486;29;20509;-88
2023/05/12 09:15:44;;;;;;;3.13;2.70;;;;;;;;;;4920623;29;20432;-89
2023/05/12 09:18:10;;;;;;;3.07;2.77;;;;;;;;;;4937142;29;20536;-90
2023/05/12 09:20:36;;;;;;;4.20;3.57;;;;;;;;;;4918611;29;20436;-88
2023/05/12 09:23:15;;;;;;;3.70;3.40;;;;;;;;;;4947645;28;20432;-89
2023/05/12 09:25:41;;;;;;;3.43;3.03;;;;;;;;;;4929527;29;20475;-89
2023/05/12 09:28:10;;;;;;;6.30;3.30;;;;;;;;;;4933133;29;20441;-89
2023/05/12 09:30:37;;;;;;;3.67;3.27;;;;;;;;;;4932608;29;20445;-89
2023/05/12 09:33:06;;;;;;;4.40;3.13;;;;;;;;;;4931347;29;20837;-89
2023/05/12 09:35:37;;;;;;;3.90;3.50;;;;;;;;;;4926886;29;20455;-89
2023/05/12 09:38:07;;;;;;;3.70;3.40;;;;;;;;;;4932733;29;20420;-89
2023/05/12 09:40:32;;;;;;;5.83;3.27;;;;;;;;;;4929920;29;21272;-89
2023/05/12 09:42:58;;;;;;;4.10;3.13;;;;;;;;;;4945236;29;20475;-91
2023/05/12 09:45:25;;;;;;;3.43;3.10;;;;;;;;;;4923783;29;20923;-88
2023/05/12 09:47:51;;;;;;;3.07;2.77;;;;;;;;;;4931043;29;20440;-89
2023/05/12 09:50:17;;;;;;;3.63;3.33;;;;;;;;;;4935421;29;20962;-89
2023/05/12 09:52:43;;;;;;;3.23;2.70;;;;;;;;;;4941368;29;20498;-88
2023/05/12 09:55:10;;;;;;;5.70;3.90;;;;;;;;;;4938746;29;20518;-90
2023/05/12 09:57:40;;;;;;;4.00;3.60;;;;;;;;;;4926426;29;20465;-89
2023/05/12 10:00:10;;;;;;;3.60;2.83;;;;;;;;;;4931539;29;20431;-89
2023/05/12 10:02:37;;;;;;;4.10;3.70;;;;;;;;;;4934913;29;20503;-88
2023/05/12 10:05:05;;;;;;;3.93;3.53;;;;;;;;;;4928103;29;20428;-89
2023/05/12 10:07:31;;;;;;;6.23;3.20;;;;;;;;;;4936469;29;20431;-89
2023/05/12 10:09:59;;;;;;;4.10;3.17;;;;;;;;;;4933981;29;20448;-88
2023/05/12 10:12:25;;;;;;;4.00;3.37;;;;;;;;;;4900790;29;20436;-88
2023/05/12 10:14:51;;;;;;;4.60;3.57;;;;;;;;;;4902822;29;20856;-88
2023/05/12 10:17:19;;;;;;;4.83;3.70;;;;;;;;;;4936344;29;20478;-88
2023/05/12 10:19:45;;;;;;;4.93;3.50;;;;;;;;;;4934912;29;20447;-86
2023/05/12 10:22:11;;;;;;;6.67;3.20;;;;;;;;;;4935623;28;20431;-86
2023/05/12 10:24:37;;;;;;;3.60;3.30;;;;;;;;;;4934027;29;20444;-86
2023/05/12 10:27:05;;;;;;;3.33;3.03;;;;;;;;;;4933466;29;20811;-86
2023/05/12 10:29:34;;;;;;;3.07;2.63;;;;;;;;;;4906487;29;20434;-90
2023/05/12 10:32:00;;;;;;;3.77;3.03;;;;;;;;;;4940602;28;20840;-86
2023/05/12 10:34:33;;;;;;;4.17;3.70;;;;;;;;;;4937402;29;20437;-87
2023/05/12 10:36:59;;;;;;;3.20;2.90;;;;;;;;;;4942489;28;20482;-87
2023/05/12 10:39:29;;;;;;;4.33;3.33;;;;;;;;;;4936075;29;20440;-87
2023/05/12 10:42:03;;;;;;;5.37;3.63;;;;;;;;;;4938252;29;20527;-89
2023/05/12 10:44:29;;;;;;;4.97;3.70;;;;;;;;;;4932046;29;20974;-87
2023/05/12 10:46:56;;;;;;;3.20;2.90;;;;;;;;;;4929275;29;20436;-87
2023/05/12 10:49:31;;;;;;;3.30;3.00;;;;;;;;;;4943681;29;20456;-87
2023/05/12 10:52:00;;;;;;;4.47;2.87;;;;;;;;;;4939311;29;20450;-87
2023/05/12 10:54:27;;;;;;;2.80;2.60;;;;;;;;;;4936386;29;20475;-88
2023/05/12 10:56:54;;;;;;;2.70;2.50;;;;;;;;;;4906914;29;20480;-88
2023/05/12 10:59:21;;;;;;;3.20;2.90;;;;;;;;;;4909763;29;20483;-87
2023/05/12 11:01:57;;;;;;;5.53;3.10;;;;;;;;;;4942918;29;20455;-87
2023/05/12 11:04:24;;;;;;;3.40;3.10;;;;;;;;;;4946795;29;20434;-87
2023/05/12 11:06:57;;;;;;;6.63;4.10;;;;;;;;;;4915532;29;20442;-87
2023/05/12 11:09:23;;;;;;;3.83;3.23;;;;;;;;;;4924193;29;20458;-88
2023/05/12 11:11:49;;;;;;;5.37;3.47;;;;;;;;;;4939947;29;20475;-87
2023/05/12 11:14:15;;;;;;;3.80;3.00;;;;;;;;;;4950997;29;20509;-88
2023/05/12 11:16:45;;;;;;;3.43;3.00;;;;;;;;;;4910267;29;20521;-88
2023/05/12 11:19:11;;;;;;;3.57;3.03;;;;;;;;;;4940325;29;20478;-88
2023/05/12 11:21:37;;;;;;;3.20;2.80;;;;;;;;;;4947111;29;20435;-88
2023/05/12 11:24:03;;;;;;;4.03;3.10;;;;;;;;;;4933101;29;20431;-89
2023/05/12 11:26:29;;;;;;;4.30;3.27;;;;;;;;;;4910158;29;20439;-88
2023/05/12 11:28:58;;;;;;;3.03;2.50;;;;;;;;;;4926138;29;20444;-90
2023/05/12 11:31:26;;;;;;;4.07;2.50;;;;;;;;;;4951028;29;20466;-89
2023/05/12 11:34:02;;;;;;;3.20;2.67;;;;;;;;;;4938239;29;20491;-88
2023/05/12 11:36:28;;;;;;;4.70;3.03;;;;;;;;;;4944064;29;20455;-87
2023/05/12 11:38:54;;;;;;;5.77;2.77;;;;;;;;;;4939013;29;20687;-90
2023/05/12 11:41:23;;;;;;;3.17;2.87;;;;;;;;;;4940796;29;21175;-90
2023/05/12 11:43:49;;;;;;;4.10;3.30;;;;;;;;;;4935288;29;20428;-90
2023/05/12 11:46:28;;;;;;;3.17;2.80;;;;;;;;;;4940447;29;20449;-89
2023/05/12 11:48:55;;;;;;;3.70;2.87;;;;;;;;;;4935362;29;20454;-90
2023/05/12 11:51:21;;;;;;;3.70;3.03;;;;;;;;;;4918213;29;20440;-90
2023/05/12 11:53:47;;;;;;;4.80;3.70;;;;;;;;;;4934961;29;20440;-89
2023/05/12 11:56:20;;;;;;;3.40;3.00;;;;;;;;;;4934463;29;20554;-88
2023/05/12 11:58:56;;;;;;;3.80;2.93;;;;;;;;;;4941173;29;20463;-90
2023/05/12 12:01:23;;;;;;;3.70;3.20;;;;;;;;;;4943050;29;20475;-89
2023/05/12 12:03:49;;;;;;;3.97;3.23;;;;;;;;;;4924408;29;20460;-89
2023/05/12 12:06:15;;;;;;;5.13;2.93;;;;;;;;;;4921228;29;20508;-88
2023/05/12 12:08:54;;;;;;;4.40;3.53;;;;;;;;;;4936555;29;20452;-90
2023/05/12 12:11:25;;;;;;;5.40;3.43;;;;;;;;;;4936972;29;20447;-90
2023/05/12 12:13:55;;;;;;;4.13;3.50;;;;;;;;;;4906639;29;20436;-90
2023/05/12 12:16:24;;;;;;;4.10;3.33;;;;;;;;;;4935991;29;20580;-90
2023/05/12 12:18:51;;;;;;;3.93;3.60;;;;;;;;;;4930110;29;20440;-88
2023/05/12 12:21:17;;;;;;;7.20;3.13;;;;;;;;;;4917836;29;20456;-89
2023/05/12 12:23:46;;;;;;;3.20;2.60;;;;;;;;;;4911741;29;20523;-90
2023/05/12 12:26:15;;;;;;;3.37;2.47;;;;;;;;;;4916745;29;20452;-89
2023/05/12 12:28:41;;;;;;;3.30;2.80;;;;;;;;;;4913521;29;20437;-87
2023/05/12 12:34:10;;;;;;;3.90;2.90;;;;;;;;;;4910487;29;20486;-88
2023/05/12 12:36:36;;;;;;;3.70;2.60;;;;;;;;;;4913041;29;20445;-87
2023/05/12 12:39:02;;;;;;;3.43;3.10;;;;;;;;;;4918172;29;21404;-88
2023/05/12 12:41:28;;;;;;;6.03;2.87;;;;;;;;;;4921803;29;20800;-87
2023/05/12 12:43:54;;;;;;;3.40;2.60;;;;;;;;;;4918661;29;21232;-87
2023/05/12 12:46:21;;;;;;;5.33;3.30;;;;;;;;;;4918745;29;20437;-87
2023/05/12 12:48:49;;;;;;;2.87;2.67;;;;;;;;;;4912885;29;20432;-95
2023/05/12 12:51:15;;;;;;;3.60;2.90;;;;;;;;;;4932014;28;20446;-94
2023/05/12 12:53:44;;;;;;;2.60;2.37;;;;;;;;;;4927289;29;20436;-95
2023/05/12 12:56:10;;;;;;;4.03;2.70;;;;;;;;;;4944862;28;20477;-95
2023/05/12 12:58:36;;;;;;;3.10;2.50;;;;;;;;;;4922051;29;20460;-96
2023/05/12 13:01:03;;;;;;;5.13;2.43;;;;;;;;;;4920832;29;20451;-95
2023/05/12 13:03:32;;;;;;;4.83;2.60;;;;;;;;;;4919992;29;20461;-95
2023/05/12 13:05:58;;;;;;;7.73;2.90;;;;;;;;;;4918680;29;20468;-95
2023/05/12 13:08:24;;;;;;;6.67;3.13;;;;;;;;;;4925108;29;20441;-96
2023/05/12 13:10:50;;;;;;;3.80;3.10;;;;;;;;;;4925097;29;20451;-95
2023/05/12 13:13:16;;;;;;;3.13;2.30;;;;;;;;;;4905041;29;20437;-96
2023/05/12 13:15:42;;;;;;;2.80;2.20;;;;;;;;;;4928174;29;20421;-94
2023/05/12 13:18:08;;;;;;;3.77;2.50;;;;;;;;;;4911145;29;20435;-94
2023/05/12 13:20:35;;;;;;;3.20;2.17;;;;;;;;;;4904039;29;20425;-95
2023/05/12 13:23:02;;;;;;;3.27;2.97;;;;;;;;;;4903800;29;20475;-94
2023/05/12 13:25:33;;;;;;;9.83;4.80;;;;;;;;;;4895279;29;21093;-95
2023/05/12 13:27:59;;;;;;;6.13;5.53;;;;;;;;;;4906045;29;20960;-96
2023/05/12 13:30:25;;;;;;;6.73;5.40;;;;;;;;;;4915337;29;20494;-95
2023/05/12 13:32:53;;;;;;;7.53;5.23;;;;;;;;;;4922550;29;20425;-95
2023/05/12 13:35:19;;;;;;;6.33;5.40;;;;;;;;;;4912275;29;20572;-95
2023/05/12 13:37:48;;;;;;;5.50;4.90;;;;;;;;;;4907374;29;20464;-96
2023/05/12 13:40:14;;;;;;;6.87;6.17;;;;;;;;;;4912052;29;20865;-95
2023/05/12 13:42:40;;;;;;;7.47;6.07;;;;;;;;;;4911136;29;20440;-96
2023/05/12 13:45:08;;;;;;;7.60;6.10;;;;;;;;;;4909911;29;20429;-94
2023/05/12 13:47:36;;;;;;;7.57;6.87;;;;;;;;;;4915030;29;20455;-96
2023/05/12 13:52:39;;;;;;;6.27;5.00;;;;;;;;;;5069988;23;20495;-94
2023/05/12 13:55:05;;;;;;;5.20;4.70;;;;;;;;;;4953881;28;20457;-94
2023/05/12 13:57:32;;;;;;;6.63;4.10;;;;;;;;;;4970694;28;20462;-92
2023/05/12 14:00:28;;;;;;;6.10;5.50;;;;;;;;;;4952419;28;20461;-94
2023/05/12 14:02:46;;;;;;;5.87;4.87;;;;;;;;;;4978358;28;20456;-94
